sensor_id;sensor_type;location;lat;lon;timestamp;P1;durP1;ratioP1;P2;durP2;ratioP2
16506;SDS011;8366;51.020;7.642;2023-03-05T00:02:04;8.90;;;2.33;;
16506;SDS011;8366;51.020;7.642;2023-03-05T00:04:31;6.37;;;2.20;;
16506;SDS011;8366;51.020;7.642;2023-03-05T00:06:57;7.50;;;2.30;;
16506;SDS011;8366;51.020;7.642;2023-03-05T00:09:24;7.57;;;2.37;;
16506;SDS011;8366;51.020;7.642;2023-03-05T00:11:52;4.17;;;1.60;;
16506;SDS011;8366;51.020;7.642;2023-03-05T00:14:19;4.10;;;1.50;;
16506;SDS011;8366;51.020;7.642;2023-03-05T00:16:45;6.50;;;1.70;;
16506;SDS011;8366;51.020;7.642;2023-03-05T00:19:12;7.90;;;1.70;;
16506;SDS011;8366;51.020;7.642;2023-03-05T00:21:39;5.73;;;1.57;;
16506;SDS011;8366;51.020;7.642;2023-03-05T00:24:07;4.27;;;1.43;;
16506;SDS011;8366;51.020;7.642;2023-03-05T00:26:36;3.67;;;1.37;;
16506;SDS011;8366;51.020;7.642;2023-03-05T00:29:05;7.13;;;1.57;;
16506;SDS011;8366;51.020;7.642;2023-03-05T00:31:32;4.87;;;1.57;;
16506;SDS011;8366;51.020;7.642;2023-03-05T00:34:01;6.07;;;1.40;;
16506;SDS011;8366;51.020;7.642;2023-03-05T00:36:29;3.57;;;1.27;;
16506;SDS011;8366;51.020;7.642;2023-03-05T00:38:57;5.57;;;1.50;;
16506;SDS011;8366;51.020;7.642;2023-03-05T00:41:23;5.33;;;1.37;;
16506;SDS011;8366;51.020;7.642;2023-03-05T00:43:50;6.10;;;1.40;;
16506;SDS011;8366;51.020;7.642;2023-03-05T00:46:18;4.97;;;1.10;;
16506;SDS011;8366;51.020;7.642;2023-03-05T00:48:45;4.10;;;1.03;;
16506;SDS011;8366;51.020;7.642;2023-03-05T00:51:11;5.17;;;1.17;;
16506;SDS011;8366;51.020;7.642;2023-03-05T00:53:38;2.13;;;0.93;;
16506;SDS011;8366;51.020;7.642;2023-03-05T00:56:05;4.23;;;1.10;;
16506;SDS011;8366;51.020;7.642;2023-03-05T00:58:32;3.50;;;1.10;;
16506;SDS011;8366;51.020;7.642;2023-03-05T01:00:59;4.27;;;1.00;;
16506;SDS011;8366;51.020;7.642;2023-03-05T01:03:28;4.07;;;1.03;;
16506;SDS011;8366;51.020;7.642;2023-03-05T01:05:55;2.47;;;0.97;;
16506;SDS011;8366;51.020;7.642;2023-03-05T01:08:22;3.10;;;1.10;;
16506;SDS011;8366;51.020;7.642;2023-03-05T01:10:48;1.83;;;0.90;;
16506;SDS011;8366;51.020;7.642;2023-03-05T01:13:15;4.67;;;1.30;;
16506;SDS011;8366;51.020;7.642;2023-03-05T01:15:42;4.53;;;1.00;;
16506;SDS011;8366;51.020;7.642;2023-03-05T01:18:11;2.37;;;1.00;;
16506;SDS011;8366;51.020;7.642;2023-03-05T01:20:39;5.17;;;1.00;;
16506;SDS011;8366;51.020;7.642;2023-03-05T01:23:06;4.53;;;1.00;;
16506;SDS011;8366;51.020;7.642;2023-03-05T01:25:32;1.83;;;0.87;;
16506;SDS011;8366;51.020;7.642;2023-03-05T01:27:59;3.23;;;1.20;;
16506;SDS011;8366;51.020;7.642;2023-03-05T01:30:26;3.77;;;1.17;;
16506;SDS011;8366;51.020;7.642;2023-03-05T01:32:53;4.27;;;1.10;;
16506;SDS011;8366;51.020;7.642;2023-03-05T01:35:21;4.70;;;1.10;;
16506;SDS011;8366;51.020;7.642;2023-03-05T01:37:50;3.37;;;1.30;;
16506;SDS011;8366;51.020;7.642;2023-03-05T01:40:17;1.87;;;1.00;;
16506;SDS011;8366;51.020;7.642;2023-03-05T01:42:45;4.30;;;1.20;;
16506;SDS011;8366;51.020;7.642;2023-03-05T01:45:13;2.90;;;1.33;;
16506;SDS011;8366;51.020;7.642;2023-03-05T01:47:41;4.17;;;1.03;;
16506;SDS011;8366;51.020;7.642;2023-03-05T01:50:14;3.00;;;1.13;;
16506;SDS011;8366;51.020;7.642;2023-03-05T01:52:43;8.53;;;1.27;;
16506;SDS011;8366;51.020;7.642;2023-03-05T01:55:14;3.10;;;1.20;;
16506;SDS011;8366;51.020;7.642;2023-03-05T01:57:42;2.73;;;1.33;;
16506;SDS011;8366;51.020;7.642;2023-03-05T02:00:12;3.10;;;1.20;;
16506;SDS011;8366;51.020;7.642;2023-03-05T02:02:41;3.73;;;1.10;;
16506;SDS011;8366;51.020;7.642;2023-03-05T02:05:10;4.00;;;1.30;;
16506;SDS011;8366;51.020;7.642;2023-03-05T02:07:38;5.23;;;1.30;;
16506;SDS011;8366;51.020;7.642;2023-03-05T02:10:15;3.67;;;1.40;;
16506;SDS011;8366;51.020;7.642;2023-03-05T02:12:43;4.40;;;1.87;;
16506;SDS011;8366;51.020;7.642;2023-03-05T02:15:10;4.20;;;1.53;;
16506;SDS011;8366;51.020;7.642;2023-03-05T02:17:37;4.37;;;1.63;;
16506;SDS011;8366;51.020;7.642;2023-03-05T02:20:05;5.07;;;1.70;;
16506;SDS011;8366;51.020;7.642;2023-03-05T02:22:35;4.53;;;1.50;;
16506;SDS011;8366;51.020;7.642;2023-03-05T02:25:09;5.57;;;1.87;;
16506;SDS011;8366;51.020;7.642;2023-03-05T02:27:38;2.83;;;1.90;;
16506;SDS011;8366;51.020;7.642;2023-03-05T02:30:06;4.57;;;2.20;;
16506;SDS011;8366;51.020;7.642;2023-03-05T02:32:34;7.23;;;2.00;;
16506;SDS011;8366;51.020;7.642;2023-03-05T02:35:00;7.30;;;2.47;;
16506;SDS011;8366;51.020;7.642;2023-03-05T02:37:27;5.80;;;2.10;;
16506;SDS011;8366;51.020;7.642;2023-03-05T02:39:55;6.90;;;2.10;;
16506;SDS011;8366;51.020;7.642;2023-03-05T02:42:21;8.03;;;2.37;;
16506;SDS011;8366;51.020;7.642;2023-03-05T02:44:48;8.70;;;2.40;;
16506;SDS011;8366;51.020;7.642;2023-03-05T02:47:15;5.53;;;2.10;;
16506;SDS011;8366;51.020;7.642;2023-03-05T02:49:41;7.17;;;2.30;;
16506;SDS011;8366;51.020;7.642;2023-03-05T02:52:08;4.63;;;2.30;;
16506;SDS011;8366;51.020;7.642;2023-03-05T02:54:35;6.47;;;2.67;;
16506;SDS011;8366;51.020;7.642;2023-03-05T02:57:03;9.77;;;3.53;;
16506;SDS011;8366;51.020;7.642;2023-03-05T02:59:29;17.30;;;5.10;;
16506;SDS011;8366;51.020;7.642;2023-03-05T03:01:56;11.83;;;4.73;;
16506;SDS011;8366;51.020;7.642;2023-03-05T03:04:22;12.40;;;5.60;;
16506;SDS011;8366;51.020;7.642;2023-03-05T03:06:50;12.70;;;5.73;;
16506;SDS011;8366;51.020;7.642;2023-03-05T03:09:16;12.30;;;5.70;;
16506;SDS011;8366;51.020;7.642;2023-03-05T03:11:43;12.50;;;6.00;;
16506;SDS011;8366;51.020;7.642;2023-03-05T03:14:10;10.67;;;5.50;;
16506;SDS011;8366;51.020;7.642;2023-03-05T03:16:37;16.80;;;6.33;;
16506;SDS011;8366;51.020;7.642;2023-03-05T03:19:04;13.33;;;5.30;;
16506;SDS011;8366;51.020;7.642;2023-03-05T03:21:30;13.10;;;4.90;;
16506;SDS011;8366;51.020;7.642;2023-03-05T03:23:57;12.43;;;4.67;;
16506;SDS011;8366;51.020;7.642;2023-03-05T03:26:23;10.57;;;4.70;;
16506;SDS011;8366;51.020;7.642;2023-03-05T03:28:50;7.97;;;3.50;;
16506;SDS011;8366;51.020;7.642;2023-03-05T03:31:18;10.53;;;3.33;;
16506;SDS011;8366;51.020;7.642;2023-03-05T03:33:45;7.33;;;3.20;;
16506;SDS011;8366;51.020;7.642;2023-03-05T03:36:11;6.67;;;2.70;;
16506;SDS011;8366;51.020;7.642;2023-03-05T03:38:38;9.30;;;3.40;;
16506;SDS011;8366;51.020;7.642;2023-03-05T03:41:05;8.97;;;3.20;;
16506;SDS011;8366;51.020;7.642;2023-03-05T03:43:32;7.43;;;3.10;;
16506;SDS011;8366;51.020;7.642;2023-03-05T03:45:59;6.40;;;3.20;;
16506;SDS011;8366;51.020;7.642;2023-03-05T03:48:27;9.30;;;3.30;;
16506;SDS011;8366;51.020;7.642;2023-03-05T03:50:53;6.67;;;4.07;;
16506;SDS011;8366;51.020;7.642;2023-03-05T03:53:20;6.93;;;3.90;;
16506;SDS011;8366;51.020;7.642;2023-03-05T03:55:46;8.07;;;3.17;;
16506;SDS011;8366;51.020;7.642;2023-03-05T03:58:13;10.63;;;3.70;;
16506;SDS011;8366;51.020;7.642;2023-03-05T04:00:40;7.83;;;3.47;;
16506;SDS011;8366;51.020;7.642;2023-03-05T04:03:07;7.50;;;3.67;;
16506;SDS011;8366;51.020;7.642;2023-03-05T04:05:36;5.43;;;3.20;;
16506;SDS011;8366;51.020;7.642;2023-03-05T04:08:06;7.20;;;3.57;;
16506;SDS011;8366;51.020;7.642;2023-03-05T04:10:36;7.90;;;3.20;;
16506;SDS011;8366;51.020;7.642;2023-03-05T04:13:02;6.30;;;3.40;;
16506;SDS011;8366;51.020;7.642;2023-03-05T04:15:29;7.13;;;3.20;;
16506;SDS011;8366;51.020;7.642;2023-03-05T04:17:56;8.17;;;3.20;;
16506;SDS011;8366;51.020;7.642;2023-03-05T04:20:22;6.17;;;3.37;;
16506;SDS011;8366;51.020;7.642;2023-03-05T04:22:50;7.30;;;3.43;;
16506;SDS011;8366;51.020;7.642;2023-03-05T04:25:17;6.23;;;3.40;;
16506;SDS011;8366;51.020;7.642;2023-03-05T04:27:43;7.57;;;3.43;;
16506;SDS011;8366;51.020;7.642;2023-03-05T04:30:11;4.63;;;1.93;;
16506;SDS011;8366;51.020;7.642;2023-03-05T04:32:38;6.57;;;3.47;;
16506;SDS011;8366;51.020;7.642;2023-03-05T04:35:05;6.13;;;3.10;;
16506;SDS011;8366;51.020;7.642;2023-03-05T04:37:32;6.57;;;3.20;;
16506;SDS011;8366;51.020;7.642;2023-03-05T04:40:00;6.50;;;3.40;;
16506;SDS011;8366;51.020;7.642;2023-03-05T04:42:27;7.57;;;3.30;;
16506;SDS011;8366;51.020;7.642;2023-03-05T04:44:53;5.77;;;3.10;;
16506;SDS011;8366;51.020;7.642;2023-03-05T04:47:20;7.23;;;3.20;;
16506;SDS011;8366;51.020;7.642;2023-03-05T04:49:47;9.47;;;2.97;;
16506;SDS011;8366;51.020;7.642;2023-03-05T04:52:13;7.20;;;3.07;;
16506;SDS011;8366;51.020;7.642;2023-03-05T04:54:40;5.73;;;3.23;;
16506;SDS011;8366;51.020;7.642;2023-03-05T04:57:08;7.50;;;3.53;;
16506;SDS011;8366;51.020;7.642;2023-03-05T04:59:35;6.83;;;3.07;;
16506;SDS011;8366;51.020;7.642;2023-03-05T05:02:03;6.33;;;3.23;;
16506;SDS011;8366;51.020;7.642;2023-03-05T05:04:30;6.93;;;3.10;;
16506;SDS011;8366;51.020;7.642;2023-03-05T05:06:57;8.53;;;4.33;;
16506;SDS011;8366;51.020;7.642;2023-03-05T05:09:24;6.57;;;4.00;;
16506;SDS011;8366;51.020;7.642;2023-03-05T05:11:51;10.97;;;3.97;;
16506;SDS011;8366;51.020;7.642;2023-03-05T05:14:19;10.43;;;4.00;;
16506;SDS011;8366;51.020;7.642;2023-03-05T05:16:45;9.67;;;4.27;;
16506;SDS011;8366;51.020;7.642;2023-03-05T05:19:12;7.87;;;3.93;;
16506;SDS011;8366;51.020;7.642;2023-03-05T05:21:39;8.40;;;4.00;;
16506;SDS011;8366;51.020;7.642;2023-03-05T05:24:05;9.57;;;4.03;;
16506;SDS011;8366;51.020;7.642;2023-03-05T05:26:32;9.60;;;4.93;;
16506;SDS011;8366;51.020;7.642;2023-03-05T05:28:59;12.83;;;6.00;;
16506;SDS011;8366;51.020;7.642;2023-03-05T05:31:27;8.77;;;5.33;;
16506;SDS011;8366;51.020;7.642;2023-03-05T05:33:53;16.07;;;6.70;;
16506;SDS011;8366;51.020;7.642;2023-03-05T05:36:20;15.10;;;7.27;;
16506;SDS011;8366;51.020;7.642;2023-03-05T05:38:47;16.83;;;7.93;;
16506;SDS011;8366;51.020;7.642;2023-03-05T05:41:14;15.83;;;7.60;;
16506;SDS011;8366;51.020;7.642;2023-03-05T05:43:42;19.57;;;9.77;;
16506;SDS011;8366;51.020;7.642;2023-03-05T05:46:09;16.83;;;9.77;;
16506;SDS011;8366;51.020;7.642;2023-03-05T05:48:39;17.13;;;9.43;;
16506;SDS011;8366;51.020;7.642;2023-03-05T05:51:06;21.70;;;10.40;;
16506;SDS011;8366;51.020;7.642;2023-03-05T05:53:33;21.77;;;9.77;;
16506;SDS011;8366;51.020;7.642;2023-03-05T05:56:00;22.17;;;10.90;;
16506;SDS011;8366;51.020;7.642;2023-03-05T05:58:26;20.60;;;9.80;;
16506;SDS011;8366;51.020;7.642;2023-03-05T06:00:53;21.83;;;10.50;;
16506;SDS011;8366;51.020;7.642;2023-03-05T06:03:20;22.33;;;11.27;;
16506;SDS011;8366;51.020;7.642;2023-03-05T06:05:51;21.53;;;11.63;;
16506;SDS011;8366;51.020;7.642;2023-03-05T06:08:17;27.67;;;11.83;;
16506;SDS011;8366;51.020;7.642;2023-03-05T06:10:44;21.47;;;10.67;;
16506;SDS011;8366;51.020;7.642;2023-03-05T06:13:18;21.20;;;10.03;;
16506;SDS011;8366;51.020;7.642;2023-03-05T06:15:53;21.07;;;9.47;;
16506;SDS011;8366;51.020;7.642;2023-03-05T06:18:23;18.60;;;10.13;;
16506;SDS011;8366;51.020;7.642;2023-03-05T06:20:55;19.70;;;10.40;;
16506;SDS011;8366;51.020;7.642;2023-03-05T06:23:22;22.20;;;10.60;;
16506;SDS011;8366;51.020;7.642;2023-03-05T06:25:49;24.97;;;10.57;;
16506;SDS011;8366;51.020;7.642;2023-03-05T06:28:16;15.83;;;8.90;;
16506;SDS011;8366;51.020;7.642;2023-03-05T06:30:43;17.37;;;9.10;;
16506;SDS011;8366;51.020;7.642;2023-03-05T06:33:09;15.37;;;8.17;;
16506;SDS011;8366;51.020;7.642;2023-03-05T06:35:39;16.57;;;7.23;;
16506;SDS011;8366;51.020;7.642;2023-03-05T06:38:07;13.83;;;7.27;;
16506;SDS011;8366;51.020;7.642;2023-03-05T06:40:34;11.60;;;7.27;;
16506;SDS011;8366;51.020;7.642;2023-03-05T06:43:03;12.40;;;6.50;;
16506;SDS011;8366;51.020;7.642;2023-03-05T06:45:29;13.37;;;6.33;;
16506;SDS011;8366;51.020;7.642;2023-03-05T06:47:56;10.53;;;5.50;;
16506;SDS011;8366;51.020;7.642;2023-03-05T06:50:22;13.13;;;6.30;;
16506;SDS011;8366;51.020;7.642;2023-03-05T06:52:49;11.87;;;5.67;;
16506;SDS011;8366;51.020;7.642;2023-03-05T06:55:17;9.87;;;5.07;;
16506;SDS011;8366;51.020;7.642;2023-03-05T06:57:44;8.33;;;5.30;;
16506;SDS011;8366;51.020;7.642;2023-03-05T07:00:11;9.20;;;5.23;;
16506;SDS011;8366;51.020;7.642;2023-03-05T07:02:39;11.87;;;5.43;;
16506;SDS011;8366;51.020;7.642;2023-03-05T07:05:06;11.90;;;5.63;;
16506;SDS011;8366;51.020;7.642;2023-03-05T07:07:33;9.00;;;5.47;;
16506;SDS011;8366;51.020;7.642;2023-03-05T07:10:00;13.27;;;6.13;;
16506;SDS011;8366;51.020;7.642;2023-03-05T07:12:28;15.73;;;6.63;;
16506;SDS011;8366;51.020;7.642;2023-03-05T07:14:55;12.20;;;6.30;;
16506;SDS011;8366;51.020;7.642;2023-03-05T07:17:22;10.83;;;5.17;;
16506;SDS011;8366;51.020;7.642;2023-03-05T07:19:49;11.30;;;5.30;;
16506;SDS011;8366;51.020;7.642;2023-03-05T07:22:15;10.40;;;5.53;;
16506;SDS011;8366;51.020;7.642;2023-03-05T07:24:42;8.70;;;5.67;;
16506;SDS011;8366;51.020;7.642;2023-03-05T07:27:08;11.60;;;5.50;;
16506;SDS011;8366;51.020;7.642;2023-03-05T07:29:36;8.50;;;4.40;;
16506;SDS011;8366;51.020;7.642;2023-03-05T07:32:03;8.33;;;4.70;;
16506;SDS011;8366;51.020;7.642;2023-03-05T07:34:31;9.80;;;4.63;;
16506;SDS011;8366;51.020;7.642;2023-03-05T07:36:57;8.37;;;3.97;;
16506;SDS011;8366;51.020;7.642;2023-03-05T07:39:24;9.10;;;3.50;;
16506;SDS011;8366;51.020;7.642;2023-03-05T07:41:54;6.97;;;3.33;;
16506;SDS011;8366;51.020;7.642;2023-03-05T07:44:20;4.90;;;3.10;;
16506;SDS011;8366;51.020;7.642;2023-03-05T07:46:48;5.93;;;2.97;;
16506;SDS011;8366;51.020;7.642;2023-03-05T07:49:15;5.90;;;3.37;;
16506;SDS011;8366;51.020;7.642;2023-03-05T07:51:41;7.97;;;2.77;;
16506;SDS011;8366;51.020;7.642;2023-03-05T07:54:08;4.77;;;2.30;;
16506;SDS011;8366;51.020;7.642;2023-03-05T07:56:35;6.87;;;3.10;;
16506;SDS011;8366;51.020;7.642;2023-03-05T07:59:02;7.70;;;2.43;;
16506;SDS011;8366;51.020;7.642;2023-03-05T08:01:31;6.40;;;2.80;;
16506;SDS011;8366;51.020;7.642;2023-03-05T08:03:59;6.07;;;2.60;;
16506;SDS011;8366;51.020;7.642;2023-03-05T08:06:26;4.47;;;2.50;;
16506;SDS011;8366;51.020;7.642;2023-03-05T08:08:55;6.23;;;2.57;;
16506;SDS011;8366;51.020;7.642;2023-03-05T08:11:30;4.83;;;2.23;;
16506;SDS011;8366;51.020;7.642;2023-03-05T08:13:57;7.93;;;2.30;;
16506;SDS011;8366;51.020;7.642;2023-03-05T08:16:30;5.33;;;2.60;;
16506;SDS011;8366;51.020;7.642;2023-03-05T08:18:57;4.27;;;2.50;;
16506;SDS011;8366;51.020;7.642;2023-03-05T08:21:29;6.80;;;3.37;;
16506;SDS011;8366;51.020;7.642;2023-03-05T08:24:03;5.67;;;3.00;;
16506;SDS011;8366;51.020;7.642;2023-03-05T08:26:36;5.50;;;3.40;;
16506;SDS011;8366;51.020;7.642;2023-03-05T08:29:04;8.13;;;3.50;;
16506;SDS011;8366;51.020;7.642;2023-03-05T08:31:31;8.53;;;5.37;;
16506;SDS011;8366;51.020;7.642;2023-03-05T08:34:03;7.40;;;3.70;;
16506;SDS011;8366;51.020;7.642;2023-03-05T08:36:30;9.27;;;3.70;;
16506;SDS011;8366;51.020;7.642;2023-03-05T08:38:57;7.17;;;3.87;;
16506;SDS011;8366;51.020;7.642;2023-03-05T08:41:25;8.80;;;3.70;;
16506;SDS011;8366;51.020;7.642;2023-03-05T08:43:55;7.67;;;3.50;;
16506;SDS011;8366;51.020;7.642;2023-03-05T08:46:22;6.33;;;3.73;;
16506;SDS011;8366;51.020;7.642;2023-03-05T08:48:52;7.53;;;3.53;;
16506;SDS011;8366;51.020;7.642;2023-03-05T08:51:21;5.37;;;3.87;;
16506;SDS011;8366;51.020;7.642;2023-03-05T08:53:50;7.17;;;3.83;;
16506;SDS011;8366;51.020;7.642;2023-03-05T08:56:17;6.10;;;3.00;;
16506;SDS011;8366;51.020;7.642;2023-03-05T08:58:44;5.80;;;2.80;;
16506;SDS011;8366;51.020;7.642;2023-03-05T09:01:12;5.23;;;2.20;;
16506;SDS011;8366;51.020;7.642;2023-03-05T09:03:39;4.17;;;2.20;;
16506;SDS011;8366;51.020;7.642;2023-03-05T09:06:07;5.83;;;2.40;;
16506;SDS011;8366;51.020;7.642;2023-03-05T09:08:43;4.80;;;2.20;;
16506;SDS011;8366;51.020;7.642;2023-03-05T09:11:14;9.77;;;3.63;;
16506;SDS011;8366;51.020;7.642;2023-03-05T09:13:41;4.17;;;2.10;;
16506;SDS011;8366;51.020;7.642;2023-03-05T09:16:09;2.47;;;1.67;;
16506;SDS011;8366;51.020;7.642;2023-03-05T09:18:36;4.53;;;2.17;;
16506;SDS011;8366;51.020;7.642;2023-03-05T09:21:04;3.07;;;2.20;;
16506;SDS011;8366;51.020;7.642;2023-03-05T09:23:31;6.03;;;2.47;;
16506;SDS011;8366;51.020;7.642;2023-03-05T09:25:59;3.70;;;1.90;;
16506;SDS011;8366;51.020;7.642;2023-03-05T09:28:26;4.90;;;1.87;;
16506;SDS011;8366;51.020;7.642;2023-03-05T09:30:53;6.47;;;2.60;;
16506;SDS011;8366;51.020;7.642;2023-03-05T09:33:19;7.00;;;2.93;;
16506;SDS011;8366;51.020;7.642;2023-03-05T09:35:46;5.63;;;2.87;;
16506;SDS011;8366;51.020;7.642;2023-03-05T09:38:13;9.17;;;3.23;;
16506;SDS011;8366;51.020;7.642;2023-03-05T09:40:41;5.60;;;3.40;;
16506;SDS011;8366;51.020;7.642;2023-03-05T09:43:15;6.60;;;3.30;;
16506;SDS011;8366;51.020;7.642;2023-03-05T09:45:54;6.37;;;3.27;;
16506;SDS011;8366;51.020;7.642;2023-03-05T09:48:25;6.33;;;3.50;;
16506;SDS011;8366;51.020;7.642;2023-03-05T09:50:58;6.70;;;2.87;;
16506;SDS011;8366;51.020;7.642;2023-03-05T09:53:30;4.27;;;2.60;;
16506;SDS011;8366;51.020;7.642;2023-03-05T09:56:01;3.73;;;2.57;;
16506;SDS011;8366;51.020;7.642;2023-03-05T09:58:32;5.47;;;2.90;;
16506;SDS011;8366;51.020;7.642;2023-03-05T10:01:01;4.93;;;2.27;;
16506;SDS011;8366;51.020;7.642;2023-03-05T10:03:32;4.13;;;2.13;;
16506;SDS011;8366;51.020;7.642;2023-03-05T10:06:03;3.27;;;2.60;;
16506;SDS011;8366;51.020;7.642;2023-03-05T10:08:39;4.27;;;3.00;;
16506;SDS011;8366;51.020;7.642;2023-03-05T10:11:16;8.30;;;3.00;;
16506;SDS011;8366;51.020;7.642;2023-03-05T10:13:50;5.07;;;3.00;;
16506;SDS011;8366;51.020;7.642;2023-03-05T10:16:26;8.50;;;3.33;;
16506;SDS011;8366;51.020;7.642;2023-03-05T10:18:58;7.33;;;3.30;;
16506;SDS011;8366;51.020;7.642;2023-03-05T10:21:27;4.80;;;3.30;;
16506;SDS011;8366;51.020;7.642;2023-03-05T10:23:58;5.40;;;2.60;;
16506;SDS011;8366;51.020;7.642;2023-03-05T10:26:31;5.33;;;2.93;;
16506;SDS011;8366;51.020;7.642;2023-03-05T10:29:13;8.80;;;3.50;;
16506;SDS011;8366;51.020;7.642;2023-03-05T10:31:49;8.20;;;3.47;;
16506;SDS011;8366;51.020;7.642;2023-03-05T10:34:27;7.43;;;3.53;;
16506;SDS011;8366;51.020;7.642;2023-03-05T10:37:05;5.87;;;3.40;;
16506;SDS011;8366;51.020;7.642;2023-03-05T10:39:41;6.30;;;3.43;;
16506;SDS011;8366;51.020;7.642;2023-03-05T10:42:24;7.17;;;4.10;;
16506;SDS011;8366;51.020;7.642;2023-03-05T10:44:55;8.60;;;4.00;;
16506;SDS011;8366;51.020;7.642;2023-03-05T10:47:23;7.67;;;4.30;;
16506;SDS011;8366;51.020;7.642;2023-03-05T10:49:52;7.03;;;3.97;;
16506;SDS011;8366;51.020;7.642;2023-03-05T10:52:20;9.17;;;4.80;;
16506;SDS011;8366;51.020;7.642;2023-03-05T10:54:50;10.53;;;4.50;;
16506;SDS011;8366;51.020;7.642;2023-03-05T10:57:17;7.13;;;4.20;;
16506;SDS011;8366;51.020;7.642;2023-03-05T10:59:46;8.70;;;4.57;;
16506;SDS011;8366;51.020;7.642;2023-03-05T11:02:16;7.00;;;4.17;;
16506;SDS011;8366;51.020;7.642;2023-03-05T11:04:44;7.27;;;4.20;;
16506;SDS011;8366;51.020;7.642;2023-03-05T11:10:02;6.67;;;4.37;;
16506;SDS011;8366;51.020;7.642;2023-03-05T11:12:49;6.27;;;4.07;;
16506;SDS011;8366;51.020;7.642;2023-03-05T11:15:27;8.47;;;4.30;;
16506;SDS011;8366;51.020;7.642;2023-03-05T11:18:05;6.40;;;4.03;;
16506;SDS011;8366;51.020;7.642;2023-03-05T11:20:41;9.07;;;4.70;;
16506;SDS011;8366;51.020;7.642;2023-03-05T11:23:09;8.43;;;5.40;;
16506;SDS011;8366;51.020;7.642;2023-03-05T11:25:48;7.80;;;4.70;;
16506;SDS011;8366;51.020;7.642;2023-03-05T11:28:18;7.53;;;4.63;;
16506;SDS011;8366;51.020;7.642;2023-03-05T11:30:53;10.57;;;7.67;;
16506;SDS011;8366;51.020;7.642;2023-03-05T11:33:22;12.10;;;10.87;;
16506;SDS011;8366;51.020;7.642;2023-03-05T11:35:50;8.70;;;5.73;;
16506;SDS011;8366;51.020;7.642;2023-03-05T11:38:19;7.40;;;4.73;;
16506;SDS011;8366;51.020;7.642;2023-03-05T11:40:48;9.43;;;5.27;;
16506;SDS011;8366;51.020;7.642;2023-03-05T11:43:16;6.70;;;5.03;;
16506;SDS011;8366;51.020;7.642;2023-03-05T11:45:44;7.97;;;5.60;;
16506;SDS011;8366;51.020;7.642;2023-03-05T11:48:14;10.67;;;5.90;;
16506;SDS011;8366;51.020;7.642;2023-03-05T11:50:46;8.37;;;4.77;;
16506;SDS011;8366;51.020;7.642;2023-03-05T11:53:17;9.67;;;4.93;;
16506;SDS011;8366;51.020;7.642;2023-03-05T11:55:47;5.90;;;5.30;;
16506;SDS011;8366;51.020;7.642;2023-03-05T11:58:26;6.20;;;4.67;;
16506;SDS011;8366;51.020;7.642;2023-03-05T12:00:55;9.53;;;5.17;;
16506;SDS011;8366;51.020;7.642;2023-03-05T12:03:25;6.20;;;3.80;;
16506;SDS011;8366;51.020;7.642;2023-03-05T12:05:58;3.80;;;3.07;;
16506;SDS011;8366;51.020;7.642;2023-03-05T12:08:26;5.73;;;4.27;;
16506;SDS011;8366;51.020;7.642;2023-03-05T12:10:56;8.27;;;4.40;;
16506;SDS011;8366;51.020;7.642;2023-03-05T12:13:26;7.10;;;4.60;;
16506;SDS011;8366;51.020;7.642;2023-03-05T12:15:58;8.20;;;4.37;;
16506;SDS011;8366;51.020;7.642;2023-03-05T12:18:32;8.17;;;5.57;;
16506;SDS011;8366;51.020;7.642;2023-03-05T12:21:14;13.57;;;4.23;;
16506;SDS011;8366;51.020;7.642;2023-03-05T12:23:47;7.77;;;5.60;;
16506;SDS011;8366;51.020;7.642;2023-03-05T12:26:14;7.13;;;5.10;;
16506;SDS011;8366;51.020;7.642;2023-03-05T12:28:56;7.00;;;4.03;;
16506;SDS011;8366;51.020;7.642;2023-03-05T12:31:37;9.40;;;5.13;;
16506;SDS011;8366;51.020;7.642;2023-03-05T12:37:10;7.93;;;4.63;;
16506;SDS011;8366;51.020;7.642;2023-03-05T12:39:41;5.37;;;4.13;;
16506;SDS011;8366;51.020;7.642;2023-03-05T12:45:22;5.77;;;4.17;;
16506;SDS011;8366;51.020;7.642;2023-03-05T12:51:01;6.87;;;4.83;;
16506;SDS011;8366;51.020;7.642;2023-03-05T12:53:30;6.53;;;4.97;;
16506;SDS011;8366;51.020;7.642;2023-03-05T12:55:58;6.77;;;4.97;;
16506;SDS011;8366;51.020;7.642;2023-03-05T12:58:32;9.43;;;5.33;;
16506;SDS011;8366;51.020;7.642;2023-03-05T13:01:02;7.90;;;5.13;;
16506;SDS011;8366;51.020;7.642;2023-03-05T13:03:32;9.03;;;5.27;;
16506;SDS011;8366;51.020;7.642;2023-03-05T13:06:01;8.23;;;5.70;;
16506;SDS011;8366;51.020;7.642;2023-03-05T13:08:33;10.37;;;6.57;;
16506;SDS011;8366;51.020;7.642;2023-03-05T13:11:01;9.60;;;6.80;;
16506;SDS011;8366;51.020;7.642;2023-03-05T13:13:31;9.57;;;6.40;;
16506;SDS011;8366;51.020;7.642;2023-03-05T13:16:00;12.27;;;7.40;;
16506;SDS011;8366;51.020;7.642;2023-03-05T13:18:28;11.13;;;6.90;;
16506;SDS011;8366;51.020;7.642;2023-03-05T13:21:01;10.47;;;6.80;;
16506;SDS011;8366;51.020;7.642;2023-03-05T13:23:30;9.10;;;5.97;;
16506;SDS011;8366;51.020;7.642;2023-03-05T13:25:59;11.47;;;6.73;;
16506;SDS011;8366;51.020;7.642;2023-03-05T13:28:28;10.60;;;6.63;;
16506;SDS011;8366;51.020;7.642;2023-03-05T13:30:55;7.53;;;5.33;;
16506;SDS011;8366;51.020;7.642;2023-03-05T13:33:24;8.70;;;5.40;;
16506;SDS011;8366;51.020;7.642;2023-03-05T13:35:52;8.17;;;5.70;;
16506;SDS011;8366;51.020;7.642;2023-03-05T13:38:23;9.87;;;6.43;;
16506;SDS011;8366;51.020;7.642;2023-03-05T13:41:03;9.93;;;5.37;;
16506;SDS011;8366;51.020;7.642;2023-03-05T13:43:42;6.93;;;5.07;;
16506;SDS011;8366;51.020;7.642;2023-03-05T13:46:09;7.47;;;5.10;;
16506;SDS011;8366;51.020;7.642;2023-03-05T13:48:35;7.83;;;5.60;;
16506;SDS011;8366;51.020;7.642;2023-03-05T13:51:02;8.00;;;5.60;;
16506;SDS011;8366;51.020;7.642;2023-03-05T13:53:31;10.03;;;6.07;;
16506;SDS011;8366;51.020;7.642;2023-03-05T13:55:59;9.43;;;5.67;;
16506;SDS011;8366;51.020;7.642;2023-03-05T13:58:41;16.67;;;8.90;;
16506;SDS011;8366;51.020;7.642;2023-03-05T14:01:12;108.53;;;27.27;;
16506;SDS011;8366;51.020;7.642;2023-03-05T14:03:40;10.07;;;5.23;;
16506;SDS011;8366;51.020;7.642;2023-03-05T14:06:07;7.80;;;5.70;;
16506;SDS011;8366;51.020;7.642;2023-03-05T14:08:35;15.10;;;13.67;;
16506;SDS011;8366;51.020;7.642;2023-03-05T14:11:10;9.47;;;6.57;;
16506;SDS011;8366;51.020;7.642;2023-03-05T14:13:38;7.60;;;5.73;;
16506;SDS011;8366;51.020;7.642;2023-03-05T14:16:07;7.37;;;5.87;;
16506;SDS011;8366;51.020;7.642;2023-03-05T14:18:34;8.93;;;6.07;;
16506;SDS011;8366;51.020;7.642;2023-03-05T14:21:03;8.47;;;6.13;;
16506;SDS011;8366;51.020;7.642;2023-03-05T14:23:36;9.27;;;6.10;;
16506;SDS011;8366;51.020;7.642;2023-03-05T14:26:16;7.27;;;5.50;;
16506;SDS011;8366;51.020;7.642;2023-03-05T14:28:49;8.90;;;6.30;;
16506;SDS011;8366;51.020;7.642;2023-03-05T14:31:18;8.60;;;6.13;;
16506;SDS011;8366;51.020;7.642;2023-03-05T14:33:46;10.23;;;5.77;;
16506;SDS011;8366;51.020;7.642;2023-03-05T14:36:18;8.73;;;5.80;;
16506;SDS011;8366;51.020;7.642;2023-03-05T14:38:46;9.37;;;6.30;;
16506;SDS011;8366;51.020;7.642;2023-03-05T14:44:10;7.87;;;5.40;;
16506;SDS011;8366;51.020;7.642;2023-03-05T14:46:39;7.97;;;5.23;;
16506;SDS011;8366;51.020;7.642;2023-03-05T14:49:05;8.17;;;5.30;;
16506;SDS011;8366;51.020;7.642;2023-03-05T14:51:32;9.20;;;5.87;;
16506;SDS011;8366;51.020;7.642;2023-03-05T14:54:01;10.30;;;7.07;;
16506;SDS011;8366;51.020;7.642;2023-03-05T14:56:28;8.43;;;6.80;;
16506;SDS011;8366;51.020;7.642;2023-03-05T14:58:55;8.30;;;6.90;;
16506;SDS011;8366;51.020;7.642;2023-03-05T15:01:21;8.83;;;6.83;;
16506;SDS011;8366;51.020;7.642;2023-03-05T15:03:50;8.60;;;6.63;;
16506;SDS011;8366;51.020;7.642;2023-03-05T15:06:17;8.07;;;6.27;;
16506;SDS011;8366;51.020;7.642;2023-03-05T15:08:46;9.47;;;6.80;;
16506;SDS011;8366;51.020;7.642;2023-03-05T15:11:13;8.67;;;6.80;;
16506;SDS011;8366;51.020;7.642;2023-03-05T15:13:39;9.83;;;7.10;;
16506;SDS011;8366;51.020;7.642;2023-03-05T15:16:06;10.80;;;6.87;;
16506;SDS011;8366;51.020;7.642;2023-03-05T15:18:33;9.47;;;7.13;;
16506;SDS011;8366;51.020;7.642;2023-03-05T15:21:01;11.00;;;6.90;;
16506;SDS011;8366;51.020;7.642;2023-03-05T15:23:27;10.57;;;7.50;;